Time,TemperatureF,DewpointF,PressureIn,WindDirection,WindDirectionDegrees,WindSpeedMPH,WindSpeedGustMPH,Humidity,HourlyPrecipIn,Conditions,Clouds,dailyrainin,SolarRadiationWatts/m^2,SoftwareType,DateUTC
2013-12-14 00:02:00,4.0,1.0,-100.00,North,-999,0.0,3.0,88,0.00,,,0.00,0.000000,,2013-12-14 07:02:00,
2013-12-14 00:12:00,4.0,1.0,-100.00,North,-999,0.0,3.0,88,0.00,,,0.00,0.000000,,2013-12-14 07:12:00,
2013-12-14 00:22:00,4.0,1.0,-100.00,North,-999,0.0,3.0,88,0.00,,,0.00,0.000000,,2013-12-14 07:22:00,
2013-12-14 00:52:00,4.0,1.0,-100.00,SW,222,1.0,2.0,89,0.00,,,0.00,0.000000,,2013-12-14 07:52:00,
2013-12-14 01:02:00,4.0,1.0,-100.00,SW,222,1.0,2.0,89,0.00,,,0.00,0.000000,,2013-12-14 08:02:00,
2013-12-14 01:11:00,4.0,1.0,-100.00,SW,222,1.0,2.0,89,0.00,,,0.00,0.000000,,2013-12-14 08:11:00,
2013-12-14 01:22:00,4.0,1.0,-100.00,SW,222,1.0,2.0,89,0.00,,,0.00,0.000000,,2013-12-14 08:22:00,
2013-12-14 01:52:00,3.0,1.0,-100.00,North,-999,0.0,2.0,90,0.00,,,0.00,0.000000,,2013-12-14 08:52:00,
2013-12-14 02:02:00,3.0,1.0,-100.00,North,-999,0.0,2.0,90,0.00,,,0.00,0.000000,,2013-12-14 09:02:00,
2013-12-14 02:12:00,3.0,1.0,-100.00,North,-999,0.0,2.0,90,0.00,,,0.00,0.000000,,2013-12-14 09:12:00,
2013-12-14 02:22:00,3.0,1.0,-100.00,North,-999,0.0,2.0,90,0.00,,,0.00,0.000000,,2013-12-14 09:22:00,
2013-12-14 02:54:00,4.0,1.0,-100.00,North,-999,0.0,1.0,88,0.00,,,0.00,0.000000,,2013-12-14 09:54:00,
2013-12-14 03:03:00,4.0,1.0,-100.00,North,-999,0.0,1.0,88,0.00,,,0.00,0.000000,,2013-12-14 10:03:00,
2013-12-14 03:12:00,4.0,1.0,-100.00,North,-999,0.0,1.0,88,0.00,,,0.00,0.000000,,2013-12-14 10:12:00,
2013-12-14 03:23:00,4.0,1.0,-100.00,North,-999,0.0,1.0,88,0.00,,,0.00,0.000000,,2013-12-14 10:23:00,
2013-12-14 03:53:00,6.0,3.0,-100.00,North,-999,0.0,4.0,88,0.00,,,0.00,0.000000,,2013-12-14 10:53:00,
2013-12-14 04:03:00,6.0,3.0,-100.00,North,-999,0.0,4.0,88,0.00,,,0.00,0.000000,,2013-12-14 11:03:00,
2013-12-14 04:11:00,6.0,3.0,-100.00,North,-999,0.0,4.0,88,0.00,,,0.00,0.000000,,2013-12-14 11:11:00,
2013-12-14 04:22:00,6.0,3.0,-100.00,North,-999,0.0,4.0,88,0.00,,,0.00,0.000000,,2013-12-14 11:22:00,
2013-12-14 04:53:00,8.0,5.0,-100.00,North,-999,0.0,5.0,88,0.00,,,0.00,0.000000,,2013-12-14 11:53:00,
2013-12-14 05:02:00,8.0,5.0,-100.00,North,-999,0.0,5.0,88,0.00,,,0.00,0.000000,,2013-12-14 12:02:00,
2013-12-14 05:12:00,8.0,5.0,-100.00,North,-999,0.0,5.0,88,0.00,,,0.00,0.000000,,2013-12-14 12:12:00,
2013-12-14 05:22:00,8.0,5.0,-100.00,North,-999,0.0,5.0,88,0.00,,,0.00,0.000000,,2013-12-14 12:22:00,
2013-12-14 05:53:00,9.0,7.0,-100.00,North,-999,0.0,1.0,90,0.00,,,0.00,0.000000,,2013-12-14 12:53:00,
2013-12-14 06:01:00,9.0,7.0,-100.00,North,-999,0.0,1.0,90,0.00,,,0.00,0.000000,,2013-12-14 13:01:00,
2013-12-14 06:11:00,9.0,7.0,-100.00,North,-999,0.0,1.0,90,0.00,,,0.00,0.000000,,2013-12-14 13:11:00,
2013-12-14 06:22:00,9.0,7.0,-100.00,North,-999,0.0,1.0,90,0.00,,,0.00,0.000000,,2013-12-14 13:22:00,
2013-12-14 06:52:00,9.0,7.0,-100.00,North,-999,0.0,2.0,90,0.00,,,0.00,0.000000,,2013-12-14 13:52:00,
2013-12-14 07:01:00,9.0,7.0,-100.00,North,-999,0.0,2.0,90,0.00,,,0.00,0.000000,,2013-12-14 14:01:00,
2013-12-14 07:11:00,9.0,7.0,-100.00,North,-999,0.0,2.0,90,0.00,,,0.00,0.000000,,2013-12-14 14:11:00,
2013-12-14 07:22:00,9.0,7.0,-100.00,North,-999,0.0,2.0,90,0.00,,,0.00,0.000000,,2013-12-14 14:22:00,
2013-12-14 07:52:00,9.0,7.0,-100.00,North,-999,0.0,2.0,91,0.00,,,0.00,0.000000,,2013-12-14 14:52:00,
2013-12-14 08:02:00,9.0,7.0,-100.00,North,-999,0.0,2.0,91,0.00,,,0.00,0.000000,,2013-12-14 15:02:00,
2013-12-14 08:11:00,9.0,7.0,-100.00,North,-999,0.0,2.0,91,0.00,,,0.00,0.000000,,2013-12-14 15:11:00,
2013-12-14 08:22:00,9.0,7.0,-100.00,North,-999,0.0,2.0,91,0.00,,,0.00,0.000000,,2013-12-14 15:22:00,
2013-12-14 08:54:00,11.0,9.0,-100.00,North,-999,0.0,3.0,90,0.00,,,0.00,31.000000,,2013-12-14 15:54:00,
2013-12-14 09:04:00,11.0,9.0,-100.00,North,-999,0.0,3.0,90,0.00,,,0.00,31.000000,,2013-12-14 16:04:00,
2013-12-14 09:13:00,11.0,9.0,-100.00,North,-999,0.0,3.0,90,0.00,,,0.00,31.000000,,2013-12-14 16:13:00,
2013-12-14 09:23:00,11.0,9.0,-100.00,North,-999,0.0,3.0,90,0.00,,,0.00,31.000000,,2013-12-14 16:23:00,
2013-12-14 10:12:00,18.0,15.0,-100.00,North,-999,0.0,1.0,87,0.00,,,0.00,121.000000,,2013-12-14 17:12:00,
2013-12-14 10:22:00,18.0,15.0,-100.00,North,-999,0.0,1.0,87,0.00,,,0.00,121.000000,,2013-12-14 17:22:00,
2013-12-14 12:22:00,24.0,14.0,-100.00,ESE,117,2.0,5.0,66,0.00,,,0.00,313.000000,,2013-12-14 19:22:00,
2013-12-14 12:52:00,22.0,14.0,-100.00,SE,137,3.0,5.0,71,0.00,,,0.00,266.000000,,2013-12-14 19:52:00,
2013-12-14 13:01:00,22.0,14.0,-100.00,SE,137,3.0,5.0,71,0.00,,,0.00,266.000000,,2013-12-14 20:01:00,
2013-12-14 13:11:00,22.0,14.0,-100.00,SE,137,3.0,5.0,71,0.00,,,0.00,266.000000,,2013-12-14 20:11:00,
2013-12-14 13:22:00,22.0,14.0,-100.00,SE,137,3.0,5.0,71,0.00,,,0.00,266.000000,,2013-12-14 20:22:00,
2013-12-14 13:54:00,26.0,17.0,-100.00,South,180,4.0,8.0,67,0.00,,,0.00,364.000000,,2013-12-14 20:54:00,
2013-12-14 14:03:00,26.0,17.0,-100.00,South,180,4.0,8.0,67,0.00,,,0.00,364.000000,,2013-12-14 21:03:00,
2013-12-14 14:11:00,26.0,17.0,-100.00,South,180,4.0,8.0,67,0.00,,,0.00,364.000000,,2013-12-14 21:11:00,
2013-12-14 14:22:00,26.0,17.0,-100.00,South,180,4.0,8.0,67,0.00,,,0.00,364.000000,,2013-12-14 21:22:00,
2013-12-14 14:54:00,24.0,18.0,-100.00,SSW,205,4.0,7.0,76,0.00,,,0.00,133.000000,,2013-12-14 21:54:00,
2013-12-14 15:03:00,24.0,18.0,-100.00,SSW,205,4.0,7.0,76,0.00,,,0.00,133.000000,,2013-12-14 22:03:00,
2013-12-14 15:13:00,24.0,18.0,-100.00,SSW,205,4.0,7.0,76,0.00,,,0.00,133.000000,,2013-12-14 22:13:00,
2013-12-14 15:23:00,24.0,18.0,-100.00,SSW,205,4.0,7.0,76,0.00,,,0.00,133.000000,,2013-12-14 22:23:00,
2013-12-14 15:52:00,26.0,21.0,-100.00,WNW,286,2.0,6.0,80,0.00,,,0.00,42.000000,,2013-12-14 22:52:00,
2013-12-14 16:02:00,26.0,21.0,-100.00,WNW,286,2.0,6.0,80,0.00,,,0.00,42.000000,,2013-12-14 23:02:00,
2013-12-14 16:12:00,26.0,21.0,-100.00,WNW,286,2.0,6.0,80,0.00,,,0.00,42.000000,,2013-12-14 23:12:00,
2013-12-14 16:22:00,26.0,21.0,-100.00,WNW,286,2.0,6.0,80,0.00,,,0.00,42.000000,,2013-12-14 23:22:00,
2013-12-14 16:53:00,26.0,21.0,-100.00,WNW,284,4.0,8.0,81,0.00,,,0.00,7.000000,,2013-12-14 23:53:00,
2013-12-14 17:02:00,26.0,21.0,-100.00,WNW,284,4.0,8.0,81,0.00,,,0.00,7.000000,,2013-12-15 00:02:00,
2013-12-14 17:11:00,26.0,21.0,-100.00,WNW,284,4.0,8.0,81,0.00,,,0.00,7.000000,,2013-12-15 00:11:00,
2013-12-14 17:22:00,26.0,21.0,-100.00,WNW,284,4.0,8.0,81,0.00,,,0.00,7.000000,,2013-12-15 00:22:00,
2013-12-14 17:52:00,26.0,21.0,-100.00,WSW,258,2.0,7.0,82,0.00,,,0.00,0.000000,,2013-12-15 00:52:00,
2013-12-14 18:01:00,26.0,21.0,-100.00,WSW,258,2.0,7.0,82,0.00,,,0.00,0.000000,,2013-12-15 01:01:00,
2013-12-14 18:11:00,26.0,21.0,-100.00,WSW,258,2.0,7.0,82,0.00,,,0.00,0.000000,,2013-12-15 01:11:00,
2013-12-14 18:21:00,26.0,21.0,-100.00,WSW,258,2.0,7.0,82,0.00,,,0.00,0.000000,,2013-12-15 01:21:00,
2013-12-14 18:52:00,26.0,23.0,-100.00,WSW,258,4.0,8.0,87,0.00,,,0.00,0.000000,,2013-12-15 01:52:00,
2013-12-14 19:01:00,26.0,23.0,-100.00,WSW,258,4.0,8.0,87,0.00,,,0.00,0.000000,,2013-12-15 02:01:00,
2013-12-14 19:11:00,26.0,23.0,-100.00,WSW,258,4.0,8.0,87,0.00,,,0.00,0.000000,,2013-12-15 02:11:00,
2013-12-14 19:22:00,26.0,23.0,-100.00,WSW,258,4.0,8.0,87,0.00,,,0.00,0.000000,,2013-12-15 02:22:00,
2013-12-14 19:52:00,29.0,25.0,-100.00,WSW,256,5.0,12.0,84,0.00,,,0.00,0.000000,,2013-12-15 02:52:00,
2013-12-14 20:02:00,29.0,25.0,-100.00,WSW,256,5.0,12.0,84,0.00,,,0.00,0.000000,,2013-12-15 03:02:00,
2013-12-14 20:12:00,29.0,25.0,-100.00,WSW,256,5.0,12.0,84,0.00,,,0.00,0.000000,,2013-12-15 03:12:00,
2013-12-14 20:22:00,29.0,25.0,-100.00,WSW,256,5.0,12.0,84,0.00,,,0.00,0.000000,,2013-12-15 03:22:00,
2013-12-14 20:54:00,32.0,27.0,-100.00,WSW,257,4.0,9.0,83,0.00,,,0.00,0.000000,,2013-12-15 03:54:00,
2013-12-14 21:02:00,-999.0,-99.9,-100.00,WSW,257,4.0,9.0,-999,0.00,,,0.00,0.000000,,2013-12-15 04:02:00,
2013-12-14 21:13:00,32.0,27.0,-100.00,WSW,257,4.0,9.0,83,0.00,,,0.00,0.000000,,2013-12-15 04:13:00,
2013-12-14 21:23:00,32.0,27.0,-100.00,WSW,257,4.0,9.0,83,0.00,,,0.00,0.000000,,2013-12-15 04:23:00,
2013-12-14 21:53:00,32.0,27.0,-100.00,West,266,6.0,12.0,82,0.00,,,0.00,0.000000,,2013-12-15 04:53:00,
2013-12-14 22:02:00,32.0,27.0,-100.00,West,266,6.0,12.0,82,0.00,,,0.00,0.000000,,2013-12-15 05:02:00,
2013-12-14 22:12:00,32.0,27.0,-100.00,West,266,6.0,12.0,82,0.00,,,0.00,0.000000,,2013-12-15 05:12:00,
2013-12-14 22:22:00,32.0,27.0,-100.00,West,266,6.0,12.0,82,0.00,,,0.00,0.000000,,2013-12-15 05:22:00,
2013-12-14 22:53:00,34.0,28.0,-100.00,West,262,4.0,11.0,80,0.00,,,0.00,0.000000,,2013-12-15 05:53:00,
2013-12-14 23:02:00,34.0,28.0,-100.00,West,262,4.0,11.0,80,0.00,,,0.00,0.000000,,2013-12-15 06:02:00,
2013-12-14 23:12:00,34.0,28.0,-100.00,West,262,4.0,11.0,80,0.00,,,0.00,0.000000,,2013-12-15 06:12:00,
2013-12-14 23:22:00,34.0,28.0,-100.00,West,262,4.0,11.0,80,0.00,,,0.00,0.000000,,2013-12-15 06:22:00,
2013-12-14 23:52:00,35.0,30.0,-100.00,WSW,246,5.0,12.0,82,0.00,,,0.00,0.000000,,2013-12-15 06:52:00,